Ns Clipper — A8GW6 — position and weather

sailwx.info

Track history (hours):
 
Tides and Currents Weather Stations Pressure Air Temp Water Temp Dewpoint Dewpoint Depression Visibility Wind Speed Wind Dir Waves Ship Positions

Ns Clipper

Last reported at 2016-Apr-24 00:12 UTC. Time now 2016-May-04 09:51 UTC.
Position N 31°53' E 031°48'.
Warning: this ship's position is 10 days out of date.

Length 244 m; draft 14.7 m.

Type: Ship. MMSI: 636012661.

Date/timePositionNaut miles runAvg speedWind from/ knotsBaromVisibWave heightAir tempDewpointWater temp
2016-Apr-24 00:12N 31°53' E 031°48'4811.9
2016-Apr-23 20:11N 32°26' E 031°07'911.9
2016-Apr-23 19:27N 32°32' E 031°00'1112.3
2016-Apr-23 18:33N 32°35' E 030°47'3012.3
2016-Apr-23 16:08N 32°43' E 030°13'712.3
2016-Apr-23 15:33N 32°45' E 030°05'3912.3
2016-Apr-23 12:24N 32°56' E 029°21'  
2016-Apr-20 21:22N 36°14' E 014°55'1012.5
2016-Apr-20 20:34N 36°17' E 014°43'1312.7
2016-Apr-20 19:33N 36°20' E 014°28'1312.5
2016-Apr-20 18:33N 36°24' E 014°13'1312.4
2016-Apr-20 17:32N 36°28' E 013°59'1212.3
2016-Apr-20 16:31N 36°32' E 013°44'1212.7
2016-Apr-20 15:33N 36°37' E 013°30'1313.0
2016-Apr-20 14:33N 36°41' E 013°14'1313.0
2016-Apr-20 13:31N 36°46' E 012°59'7512.6
2016-Apr-20 07:34N 37°12' E 011°30'  
2016-Apr-17 14:33N 35°59' W 005°18'27110.7
2016-Apr-16 13:13N 38°22' W 010°06'912.7
2016-Apr-16 12:28N 38°31' W 010°09'1212.7
2016-Apr-16 11:33N 38°43' W 010°12'1212.5
2016-Apr-16 10:33N 38°55' W 010°12'1312.4
2016-Apr-16 09:31N 39°08' W 010°12'  
Track history (hours):
 
Tides and Currents Weather Stations Pressure Air Temp Water Temp Dewpoint Dewpoint Depression Visibility Wind Speed Wind Dir Waves Ship Positions

Ns Clipper

Last reported at 2016-Apr-24 00:12 UTC. Time now 2016-May-04 09:51 UTC.
Position N 31°53' E 031°48'.
Warning: this ship's position is 10 days out of date.

Length 244 m; draft 14.7 m.

Type: Ship. MMSI: 636012661.

Date/timePositionNaut miles runAvg speedWind from/ knotsBaromVisibWave heightAir tempDewpointWater temp
2016-Apr-24 00:12N 31°53' E 031°48'4811.9
2016-Apr-23 20:11N 32°26' E 031°07'911.9
2016-Apr-23 19:27N 32°32' E 031°00'1112.3
2016-Apr-23 18:33N 32°35' E 030°47'3012.3
2016-Apr-23 16:08N 32°43' E 030°13'712.3
2016-Apr-23 15:33N 32°45' E 030°05'3912.3
2016-Apr-23 12:24N 32°56' E 029°21'  
2016-Apr-20 21:22N 36°14' E 014°55'1012.5
2016-Apr-20 20:34N 36°17' E 014°43'1312.7
2016-Apr-20 19:33N 36°20' E 014°28'1312.5
2016-Apr-20 18:33N 36°24' E 014°13'1312.4
2016-Apr-20 17:32N 36°28' E 013°59'1212.3
2016-Apr-20 16:31N 36°32' E 013°44'1212.7
2016-Apr-20 15:33N 36°37' E 013°30'1313.0
2016-Apr-20 14:33N 36°41' E 013°14'1313.0
2016-Apr-20 13:31N 36°46' E 012°59'7512.6
2016-Apr-20 07:34N 37°12' E 011°30'  
2016-Apr-17 14:33N 35°59' W 005°18'27110.7
2016-Apr-16 13:13N 38°22' W 010°06'912.7
2016-Apr-16 12:28N 38°31' W 010°09'1212.7
2016-Apr-16 11:33N 38°43' W 010°12'1212.5
2016-Apr-16 10:33N 38°55' W 010°12'1312.4
2016-Apr-16 09:31N 39°08' W 010°12'  

Dump ship's entire track history